createdAt,value
2017-11-11T00:00:47.201Z,61.08
2017-11-11T00:03:15.072Z,61.56
2017-11-11T00:05:42.677Z,61.71
2017-11-11T00:08:10.197Z,61.06
2017-11-11T00:10:37.748Z,61.38
2017-11-11T00:13:05.308Z,60.93
2017-11-11T00:15:32.819Z,61.10
2017-11-11T00:18:00.509Z,61.34
2017-11-11T00:20:28.088Z,61.12
2017-11-11T00:22:55.655Z,61.33
2017-11-11T00:25:23.388Z,61.78
2017-11-11T00:27:51.824Z,61.97
2017-11-11T00:30:19.339Z,62.42
2017-11-11T00:32:47.112Z,62.97
2017-11-11T00:35:14.637Z,62.51
2017-11-11T00:37:42.169Z,62.42
2017-11-11T00:40:09.714Z,61.88
2017-11-11T00:42:37.245Z,62.25
2017-11-11T00:45:04.806Z,62.50
2017-11-11T00:47:32.604Z,63.23
2017-11-11T00:50:00.133Z,64.32
2017-11-11T00:52:27.688Z,63.64
2017-11-11T00:54:55.292Z,62.61
2017-11-11T00:57:22.806Z,62.91
2017-11-11T00:59:50.345Z,62.68
2017-11-11T01:02:18.129Z,63.16
2017-11-11T01:04:45.706Z,63.49
2017-11-11T01:07:13.247Z,62.97
2017-11-11T01:09:40.990Z,62.68
2017-11-11T01:12:08.504Z,62.76
2017-11-11T01:14:36.020Z,63.47
2017-11-11T01:17:03.769Z,62.57
2017-11-11T01:19:31.275Z,63.13
2017-11-11T01:21:58.830Z,62.62
2017-11-11T01:24:26.546Z,62.88
2017-11-11T01:26:54.077Z,63.17
2017-11-11T01:29:21.630Z,63.42
2017-11-11T01:31:49.257Z,63.07
2017-11-11T01:34:16.772Z,63.31
2017-11-11T01:36:44.289Z,62.84
2017-11-11T01:39:11.998Z,63.23
2017-11-11T01:41:39.518Z,63.78
2017-11-11T01:44:07.028Z,63.63
2017-11-11T01:46:34.631Z,63.29
2017-11-11T01:49:02.184Z,63.54
2017-11-11T01:51:29.721Z,63.58
2017-11-11T01:53:57.479Z,63.50
2017-11-11T01:56:24.991Z,63.38
2017-11-11T01:58:52.508Z,63.51
2017-11-11T02:01:20.263Z,63.73
2017-11-11T02:03:47.771Z,63.02
2017-11-11T02:06:15.295Z,63.78
2017-11-11T02:08:43.271Z,63.83
2017-11-11T02:11:10.806Z,63.56
2017-11-11T02:13:38.674Z,63.38
2017-11-11T02:16:06.234Z,63.52
2017-11-11T02:18:33.794Z,62.52
2017-11-11T02:21:01.354Z,62.79
2017-11-11T02:23:28.984Z,63.20
2017-11-11T02:25:56.496Z,63.06
2017-11-11T02:28:24.009Z,62.89
2017-11-11T02:30:51.564Z,62.80
2017-11-11T02:33:19.158Z,63.15
2017-11-11T02:35:46.705Z,63.11
2017-11-11T02:38:14.542Z,63.35
2017-11-11T02:40:42.052Z,63.79
2017-11-11T02:43:09.568Z,63.81
2017-11-11T02:45:37.351Z,63.74
2017-11-11T02:48:04.920Z,64.13
2017-11-11T02:50:33.423Z,63.93
2017-11-11T02:53:01.156Z,63.67
2017-11-11T02:55:28.714Z,64.18
2017-11-11T02:57:56.251Z,64.44
2017-11-11T03:00:23.937Z,64.28
2017-11-11T03:02:51.493Z,64.18
2017-11-11T03:05:19.003Z,64.71
2017-11-11T03:07:46.576Z,64.34
2017-11-11T03:10:14.092Z,64.28
2017-11-11T03:12:41.635Z,64.34
2017-11-11T03:15:09.392Z,64.52
2017-11-11T03:17:36.909Z,64.31
2017-11-11T03:20:04.424Z,64.32
2017-11-11T03:22:32.732Z,63.50
2017-11-11T03:25:00.277Z,63.71
2017-11-11T03:27:27.792Z,63.58
2017-11-11T03:29:55.576Z,63.47
2017-11-11T03:32:23.094Z,63.78
2017-11-11T03:34:50.612Z,63.35
2017-11-11T03:37:18.344Z,63.14
2017-11-11T03:39:45.858Z,63.23
2017-11-11T03:42:13.372Z,63.15
2017-11-11T03:44:41.064Z,63.08
2017-11-11T03:47:08.577Z,62.98
2017-11-11T03:49:36.092Z,62.75
2017-11-11T03:52:03.650Z,62.73
2017-11-11T03:54:31.176Z,63.12
2017-11-11T03:56:58.714Z,63.12
2017-11-11T03:59:26.556Z,63.27
2017-11-11T04:01:54.084Z,63.24
2017-11-11T04:04:21.599Z,62.98
2017-11-11T04:06:49.160Z,63.09
2017-11-11T04:09:16.713Z,63.28
2017-11-11T04:11:44.274Z,63.04
2017-11-11T04:14:11.835Z,63.29
2017-11-11T04:16:39.348Z,63.25
2017-11-11T04:19:06.879Z,63.55
2017-11-11T04:21:34.448Z,64.73
2017-11-11T04:24:01.960Z,64.50
2017-11-11T04:26:29.471Z,65.15
2017-11-11T04:28:57.189Z,64.29
2017-11-11T04:31:24.700Z,63.52
2017-11-11T04:33:52.212Z,63.39
2017-11-11T04:36:19.969Z,63.06
2017-11-11T04:38:47.529Z,63.01
2017-11-11T04:41:15.087Z,62.96
2017-11-11T04:43:43.047Z,62.65
2017-11-11T04:46:10.567Z,63.02
2017-11-11T04:48:38.077Z,62.55
2017-11-11T04:51:05.628Z,62.36
2017-11-11T04:53:33.141Z,62.95
2017-11-11T04:56:00.685Z,63.20
2017-11-11T04:58:28.310Z,63.08
2017-11-11T05:00:55.815Z,63.55
2017-11-11T05:03:23.332Z,65.58
2017-11-11T05:05:50.892Z,65.59
2017-11-11T05:08:18.442Z,64.82
2017-11-11T05:10:45.951Z,64.01
2017-11-11T05:13:14.586Z,64.00
2017-11-11T05:15:42.095Z,64.01
2017-11-11T05:18:09.603Z,63.60
2017-11-11T05:20:37.344Z,63.97
2017-11-11T05:23:04.856Z,63.25
2017-11-11T05:25:33.144Z,62.79
2017-11-11T05:28:00.711Z,64.00
2017-11-11T05:30:28.223Z,63.39
2017-11-11T05:32:55.775Z,62.63
2017-11-11T05:35:23.314Z,63.96
2017-11-11T05:37:50.828Z,63.56
2017-11-11T05:40:18.335Z,63.58
2017-11-11T05:42:46.083Z,62.65
2017-11-11T05:45:13.602Z,62.34
2017-11-11T05:47:41.129Z,63.56
2017-11-11T05:50:08.685Z,62.61
2017-11-11T05:52:36.203Z,62.46
2017-11-11T05:55:03.724Z,62.14
2017-11-11T05:57:31.751Z,62.19
2017-11-11T05:59:59.263Z,62.03
2017-11-11T06:02:26.781Z,61.87
2017-11-11T06:04:54.656Z,61.24
2017-11-11T06:07:22.160Z,61.27
2017-11-11T06:09:49.671Z,62.72
2017-11-11T06:12:17.653Z,62.31
2017-11-11T06:14:45.188Z,63.80
2017-11-11T06:17:13.680Z,63.16
2017-11-11T06:19:41.444Z,62.72
2017-11-11T06:22:09.004Z,63.09
2017-11-11T06:24:36.511Z,62.96
2017-11-11T06:27:04.135Z,62.33
2017-11-11T06:29:31.814Z,63.34
2017-11-11T06:31:59.328Z,62.92
2017-11-11T06:34:26.901Z,62.88
2017-11-11T06:36:54.481Z,63.54
2017-11-11T06:39:22.019Z,62.81
2017-11-11T06:41:49.816Z,63.51
2017-11-11T06:44:17.547Z,62.38
2017-11-11T06:46:45.105Z,63.26
2017-11-11T06:49:12.843Z,63.57
2017-11-11T06:51:40.355Z,62.66
2017-11-11T06:54:07.886Z,63.75
2017-11-11T06:56:35.441Z,63.62
2017-11-11T06:59:02.949Z,63.96
2017-11-11T07:01:30.460Z,63.81
2017-11-11T07:03:58.207Z,62.91
2017-11-11T07:06:25.719Z,63.23
2017-11-11T07:08:53.233Z,63.46
2017-11-11T07:11:21.106Z,63.37
2017-11-11T07:13:48.666Z,63.37
2017-11-11T07:16:16.176Z,63.99
2017-11-11T07:18:43.755Z,63.34
2017-11-11T07:21:11.346Z,64.10
2017-11-11T07:23:38.859Z,64.35
2017-11-11T07:26:06.564Z,64.62
2017-11-11T07:28:34.076Z,64.76
2017-11-11T07:31:01.608Z,65.32
2017-11-11T07:33:30.264Z,65.56
2017-11-11T07:35:57.783Z,65.82
2017-11-11T07:38:25.299Z,65.68
2017-11-11T07:40:53.020Z,65.75
2017-11-11T07:43:20.538Z,65.84
2017-11-11T07:45:48.060Z,65.63
2017-11-11T07:48:15.929Z,65.93
2017-11-11T07:50:43.443Z,65.65
2017-11-11T07:53:11.456Z,65.97
2017-11-11T07:55:39.321Z,65.83
2017-11-11T07:58:06.876Z,66.56
2017-11-11T08:00:34.382Z,65.87
2017-11-11T08:03:01.949Z,65.92
2017-11-11T08:05:29.476Z,66.03
2017-11-11T08:07:57.012Z,65.48
2017-11-11T08:10:24.778Z,65.78
2017-11-11T08:12:52.299Z,65.03
2017-11-11T08:15:19.818Z,65.32
2017-11-11T08:17:47.368Z,65.39
2017-11-11T08:20:14.912Z,65.38
2017-11-11T08:22:42.471Z,65.61
2017-11-11T08:25:10.052Z,65.50
2017-11-11T08:27:37.582Z,65.17
2017-11-11T08:30:05.112Z,64.58
2017-11-11T08:32:32.980Z,63.73
2017-11-11T08:35:00.492Z,64.52
2017-11-11T08:37:28.047Z,63.62
2017-11-11T08:39:55.793Z,63.73
2017-11-11T08:42:23.368Z,62.54
2017-11-11T08:44:50.879Z,63.89
2017-11-11T08:47:18.423Z,63.80
2017-11-11T08:49:45.998Z,63.49
2017-11-11T08:52:13.516Z,63.20
2017-11-11T08:54:41.179Z,63.63
2017-11-11T08:57:08.708Z,63.53
2017-11-11T08:59:36.268Z,63.73
2017-11-11T09:02:04.518Z,63.10
2017-11-11T09:04:32.032Z,62.79
2017-11-11T09:06:59.550Z,63.21
2017-11-11T09:09:27.323Z,63.35
2017-11-11T09:11:54.835Z,62.99
2017-11-11T09:14:22.363Z,63.73
2017-11-11T09:16:50.084Z,63.99
2017-11-11T09:19:17.604Z,63.80
2017-11-11T09:21:45.544Z,64.45
2017-11-11T09:24:13.110Z,64.00
2017-11-11T09:26:41.574Z,64.07
2017-11-11T09:29:09.091Z,63.27
2017-11-11T09:31:36.803Z,62.40
2017-11-11T09:34:04.332Z,63.74
2017-11-11T09:36:31.849Z,64.33
2017-11-11T09:38:59.568Z,63.50
2017-11-11T09:41:27.149Z,63.64
2017-11-11T09:43:54.685Z,63.92
2017-11-11T09:46:22.477Z,64.38
2017-11-11T09:48:49.997Z,64.73
2017-11-11T09:51:17.513Z,64.35
2017-11-11T09:53:45.313Z,64.42
2017-11-11T09:56:12.835Z,65.02
2017-11-11T09:58:40.400Z,64.97
2017-11-11T10:01:08.117Z,65.21
2017-11-11T10:03:35.669Z,64.35
2017-11-11T10:06:03.186Z,64.55
2017-11-11T10:08:31.095Z,65.11
2017-11-11T10:10:58.757Z,64.62
2017-11-11T10:13:26.308Z,63.43
2017-11-11T10:15:54.192Z,64.02
2017-11-11T10:18:21.838Z,64.14
2017-11-11T10:20:49.363Z,63.45
2017-11-11T10:23:17.137Z,63.02
2017-11-11T10:25:45.853Z,62.86
2017-11-11T10:28:13.503Z,62.68
2017-11-11T10:30:41.176Z,62.37
2017-11-11T10:33:08.734Z,62.37
2017-11-11T10:35:36.265Z,62.44
2017-11-11T10:38:04.368Z,62.82
2017-11-11T10:40:31.874Z,63.57
2017-11-11T10:42:59.384Z,62.42
2017-11-11T10:45:27.131Z,63.11
2017-11-11T10:47:55.625Z,62.05
2017-11-11T10:50:23.340Z,62.87
2017-11-11T10:52:51.136Z,62.28
2017-11-11T10:55:18.656Z,62.88
2017-11-11T10:57:46.272Z,62.98
2017-11-11T11:00:13.879Z,62.29
2017-11-11T11:02:41.410Z,62.51
2017-11-11T11:05:08.950Z,62.71
2017-11-11T11:07:37.430Z,62.02
2017-11-11T11:10:05.295Z,62.04
2017-11-11T11:12:32.817Z,62.51
2017-11-11T11:15:00.722Z,62.14
2017-11-11T11:17:28.246Z,61.86
2017-11-11T11:19:55.845Z,60.81
2017-11-11T11:22:23.406Z,62.15
2017-11-11T11:24:50.968Z,60.91
2017-11-11T11:27:18.488Z,61.65
2017-11-11T11:29:46.075Z,61.57
2017-11-11T11:32:13.747Z,61.33
2017-11-11T11:34:41.296Z,61.65
2017-11-11T11:37:09.162Z,62.23
2017-11-11T11:39:36.712Z,61.91
2017-11-11T11:42:04.289Z,61.33
2017-11-11T11:44:32.228Z,61.74
2017-11-11T11:46:59.779Z,63.37
2017-11-11T11:49:28.289Z,64.02
2017-11-11T11:51:56.051Z,62.93
2017-11-11T11:54:23.567Z,64.16
2017-11-11T11:56:51.282Z,64.35
2017-11-11T11:59:19.091Z,64.54
2017-11-11T12:01:46.800Z,64.37
2017-11-11T12:04:14.362Z,65.51
2017-11-11T12:06:42.114Z,65.78
2017-11-11T12:09:09.619Z,66.32
2017-11-11T12:11:37.124Z,67.48
2017-11-11T12:14:04.908Z,67.71
2017-11-11T12:16:32.469Z,66.88
2017-11-11T12:19:00.033Z,66.96
2017-11-11T12:21:27.676Z,66.46
2017-11-11T12:23:55.213Z,66.63
2017-11-11T12:26:22.722Z,66.49
2017-11-11T12:28:50.463Z,66.36
2017-11-11T12:31:18.025Z,65.76
2017-11-11T12:33:45.595Z,65.47
2017-11-11T12:36:13.756Z,65.44
2017-11-11T12:38:41.307Z,65.87
2017-11-11T12:41:08.816Z,65.84
2017-11-11T12:43:36.434Z,65.43
2017-11-11T12:46:04.007Z,65.85
2017-11-11T12:48:31.554Z,65.68
2017-11-11T12:50:59.288Z,64.78
2017-11-11T12:53:26.874Z,65.40
2017-11-11T12:55:54.413Z,66.24
2017-11-11T12:58:22.236Z,67.12
2017-11-11T13:00:50.061Z,67.66
2017-11-11T13:03:17.641Z,67.81
2017-11-11T13:05:45.488Z,67.10
2017-11-11T13:08:13.013Z,67.79
2017-11-11T13:10:40.548Z,67.87
2017-11-11T13:13:08.331Z,68.44
2017-11-11T13:15:35.843Z,67.83
2017-11-11T13:18:03.385Z,67.57
2017-11-11T13:20:30.944Z,67.89
2017-11-11T13:22:58.503Z,67.97
2017-11-11T13:25:26.032Z,68.13
2017-11-11T13:27:53.803Z,68.72
2017-11-11T13:30:21.694Z,68.22
2017-11-11T13:32:49.209Z,67.57
2017-11-11T13:35:16.860Z,67.96
2017-11-11T13:37:45.045Z,68.02
2017-11-11T13:40:12.565Z,67.98
2017-11-11T13:42:40.283Z,68.24
2017-11-11T13:45:07.805Z,67.89
2017-11-11T13:47:35.462Z,67.88
2017-11-11T13:50:03.272Z,68.02
2017-11-11T13:52:30.785Z,68.19
2017-11-11T13:54:58.349Z,67.86
2017-11-11T13:57:26.247Z,68.00
2017-11-11T13:59:53.758Z,67.82
2017-11-11T14:02:21.600Z,68.45
2017-11-11T14:04:49.711Z,68.31
2017-11-11T14:07:17.332Z,68.36
2017-11-11T14:09:45.056Z,68.87
2017-11-11T14:12:13.166Z,68.28
2017-11-11T14:14:40.802Z,68.79
2017-11-11T14:17:08.392Z,68.29
2017-11-11T14:19:35.996Z,68.45
2017-11-11T14:22:03.523Z,68.98
2017-11-11T14:24:31.065Z,69.28
2017-11-11T14:26:58.745Z,69.36
2017-11-11T14:29:26.387Z,69.77
2017-11-11T14:31:53.946Z,69.09
2017-11-11T14:34:21.817Z,69.00
2017-11-11T14:36:49.365Z,69.00
2017-11-11T14:39:17.135Z,69.66
2017-11-11T14:41:44.900Z,68.50
2017-11-11T14:44:12.587Z,68.98
2017-11-11T14:46:40.291Z,68.73
2017-11-11T14:49:08.068Z,68.87
2017-11-11T14:51:35.852Z,68.57
2017-11-11T14:54:03.617Z,68.39
2017-11-11T14:56:31.278Z,68.16
2017-11-11T14:58:58.796Z,68.44
2017-11-11T15:01:26.502Z,67.69
2017-11-11T15:03:54.568Z,67.89
2017-11-11T15:06:22.253Z,67.44
2017-11-11T15:08:50.007Z,67.42
2017-11-11T15:11:18.183Z,68.06
2017-11-11T15:13:46.037Z,67.85
2017-11-11T15:16:13.697Z,67.18
2017-11-11T15:18:41.563Z,67.02
2017-11-11T15:21:09.238Z,66.86
2017-11-11T15:23:36.855Z,67.85
2017-11-11T15:26:04.853Z,67.88
2017-11-11T15:28:32.447Z,66.87
2017-11-11T15:31:00.181Z,67.36
2017-11-11T15:33:27.942Z,67.14
2017-11-11T15:35:55.606Z,67.17
2017-11-11T15:38:23.563Z,67.64
2017-11-11T15:40:51.234Z,68.26
2017-11-11T15:43:19.030Z,67.53
2017-11-11T15:45:46.660Z,67.20
2017-11-11T15:48:14.416Z,67.45
2017-11-11T15:50:42.185Z,67.13
2017-11-11T15:53:09.954Z,67.11
2017-11-11T15:55:37.735Z,67.06
2017-11-11T15:58:05.270Z,67.38
2017-11-11T16:00:33.045Z,67.19
2017-11-11T16:03:00.767Z,66.95
2017-11-11T16:05:28.303Z,67.67
2017-11-11T16:07:55.824Z,66.71
2017-11-11T16:10:23.712Z,67.29
2017-11-11T16:12:51.252Z,67.27
2017-11-11T16:15:18.802Z,67.56
2017-11-11T16:17:46.534Z,67.42
2017-11-11T16:20:14.058Z,66.88
2017-11-11T16:22:41.582Z,67.27
2017-11-11T16:25:09.650Z,67.60
2017-11-11T16:27:37.211Z,67.82
2017-11-11T16:30:04.770Z,67.99
2017-11-11T16:32:32.471Z,67.29
2017-11-11T16:35:00.044Z,68.32
2017-11-11T16:37:27.754Z,68.82
2017-11-11T16:39:55.500Z,68.48
2017-11-11T16:42:23.012Z,68.16
2017-11-11T16:44:50.524Z,68.92
2017-11-11T16:47:18.230Z,68.62
2017-11-11T16:49:45.861Z,68.94
2017-11-11T16:52:13.415Z,69.13
2017-11-11T16:54:41.217Z,68.57
2017-11-11T16:57:08.752Z,68.57
2017-11-11T16:59:36.292Z,67.82
2017-11-11T17:02:03.856Z,68.37
2017-11-11T17:04:31.519Z,68.00
2017-11-11T17:06:59.077Z,68.13
2017-11-11T17:09:26.633Z,68.31
2017-11-11T17:11:54.195Z,68.16
2017-11-11T17:14:21.753Z,67.71
2017-11-11T17:16:49.928Z,67.12
2017-11-11T17:19:17.488Z,67.67
2017-11-11T17:21:45.046Z,66.58
2017-11-11T17:24:13.006Z,67.14
2017-11-11T17:26:40.575Z,67.87
2017-11-11T17:29:08.133Z,67.37
2017-11-11T17:31:35.975Z,67.66
2017-11-11T17:34:03.489Z,67.10
2017-11-11T17:36:31.020Z,68.06
2017-11-11T17:38:58.603Z,67.28
2017-11-11T17:41:26.115Z,67.20
2017-11-11T17:43:53.639Z,67.46
2017-11-11T17:46:21.483Z,67.34
2017-11-11T17:48:49.036Z,67.44
2017-11-11T17:51:16.555Z,67.33
2017-11-11T17:53:44.237Z,67.21
2017-11-11T17:56:11.793Z,67.52
2017-11-11T17:58:39.312Z,67.36
2017-11-11T18:01:07.321Z,67.09
2017-11-11T18:03:34.891Z,68.11
2017-11-11T18:06:02.444Z,67.02
2017-11-11T18:08:30.216Z,67.95
2017-11-11T18:10:57.866Z,67.69
2017-11-11T18:13:25.526Z,66.66
2017-11-11T18:15:53.495Z,66.81
2017-11-11T18:18:21.272Z,68.17
2017-11-11T18:20:49.040Z,67.19
2017-11-11T18:23:17.010Z,67.70
2017-11-11T18:25:44.664Z,68.00
2017-11-11T18:28:12.318Z,67.85
2017-11-11T18:30:40.182Z,67.59
2017-11-11T18:33:07.747Z,67.93
2017-11-11T18:35:35.363Z,67.76
2017-11-11T18:38:03.781Z,68.15
2017-11-11T18:40:32.261Z,67.30
2017-11-11T18:42:59.800Z,67.99
2017-11-11T18:45:28.130Z,68.24
2017-11-11T18:47:55.758Z,68.13
2017-11-11T18:50:23.316Z,68.08
2017-11-11T18:52:51.289Z,68.54
2017-11-11T18:55:18.810Z,68.25
2017-11-11T18:57:46.427Z,68.92
2017-11-11T19:00:14.563Z,68.67
2017-11-11T19:02:42.450Z,68.39
2017-11-11T19:05:10.312Z,68.55
2017-11-11T19:07:38.058Z,68.37
2017-11-11T19:10:05.738Z,68.46
2017-11-11T19:12:33.398Z,67.87
2017-11-11T19:15:01.057Z,68.33
2017-11-11T19:17:28.617Z,67.89
2017-11-11T19:19:56.160Z,68.64
2017-11-11T19:22:24.146Z,68.99
2017-11-11T19:24:52.316Z,68.50
2017-11-11T19:27:19.980Z,68.54
2017-11-11T19:29:47.901Z,66.90
2017-11-11T19:32:15.712Z,68.16
2017-11-11T19:34:43.273Z,67.24
2017-11-11T19:37:11.368Z,66.85
2017-11-11T19:39:39.215Z,67.48
2017-11-11T19:42:06.767Z,67.00
2017-11-11T19:44:34.845Z,67.68
2017-11-11T19:47:03.217Z,67.13
2017-11-11T19:49:30.983Z,66.89
2017-11-11T19:51:58.754Z,66.96
2017-11-11T19:54:26.306Z,68.15
2017-11-11T19:56:54.477Z,67.58
2017-11-11T19:59:22.651Z,67.96
2017-11-11T20:01:50.221Z,67.77
2017-11-11T20:04:17.975Z,67.99
2017-11-11T20:06:45.737Z,66.25
2017-11-11T20:09:13.399Z,66.95
2017-11-11T20:11:40.998Z,67.25
2017-11-11T20:14:08.585Z,66.98
2017-11-11T20:16:36.291Z,66.52
2017-11-11T20:19:03.844Z,67.41
2017-11-11T20:21:31.617Z,67.00
2017-11-11T20:23:59.374Z,67.49
2017-11-11T20:26:26.975Z,68.85
2017-11-11T20:28:55.772Z,69.03
2017-11-11T20:31:23.480Z,70.35
2017-11-11T20:33:51.242Z,70.51
2017-11-11T20:36:19.518Z,71.87
2017-11-11T20:38:47.342Z,72.15
2017-11-11T20:41:15.267Z,71.79
2017-11-11T20:43:43.221Z,72.37
2017-11-11T20:46:10.999Z,73.66
2017-11-11T20:48:38.665Z,72.74
2017-11-11T20:51:07.695Z,71.90
2017-11-11T20:53:35.516Z,71.30
2017-11-11T20:56:03.372Z,71.77
2017-11-11T20:58:31.286Z,70.73
2017-11-11T21:00:59.002Z,72.57
2017-11-11T21:03:26.835Z,71.99
2017-11-11T21:05:54.639Z,72.76
2017-11-11T21:08:22.401Z,71.56
2017-11-11T21:10:50.175Z,71.54
2017-11-11T21:13:17.931Z,71.24
2017-11-11T21:15:45.606Z,71.44
2017-11-11T21:18:13.453Z,70.53
2017-11-11T21:20:41.191Z,70.91
2017-11-11T21:23:08.728Z,70.51
2017-11-11T21:25:36.446Z,69.97
2017-11-11T21:28:04.403Z,69.61
2017-11-11T21:30:32.150Z,69.62
2017-11-11T21:32:59.834Z,70.02
2017-11-11T21:35:27.493Z,69.28
2017-11-11T21:37:55.255Z,69.23
2017-11-11T21:40:22.795Z,69.33
2017-11-11T21:42:50.825Z,70.10
2017-11-11T21:45:18.384Z,69.42
2017-11-11T21:47:46.094Z,69.67
2017-11-11T21:50:13.869Z,70.23
2017-11-11T21:52:41.431Z,69.45
2017-11-11T21:55:09.039Z,69.06
2017-11-11T21:57:36.859Z,69.06
2017-11-11T22:00:04.516Z,69.49
2017-11-11T22:02:32.077Z,68.82
2017-11-11T22:04:59.652Z,68.84
2017-11-11T22:07:27.211Z,68.92
2017-11-11T22:09:54.782Z,68.00
2017-11-11T22:12:22.357Z,67.89
2017-11-11T22:14:49.975Z,66.97
2017-11-11T22:17:17.534Z,66.76
2017-11-11T22:19:45.400Z,67.80
2017-11-11T22:22:12.963Z,66.66
2017-11-11T22:24:40.622Z,66.38
2017-11-11T22:27:08.383Z,66.38
2017-11-11T22:29:36.054Z,66.26
2017-11-11T22:32:03.708Z,66.30
2017-11-11T22:34:31.573Z,66.01
2017-11-11T22:36:59.135Z,65.71
2017-11-11T22:39:26.912Z,65.38
2017-11-11T22:41:54.597Z,65.35
2017-11-11T22:44:22.322Z,65.26
2017-11-11T22:46:49.870Z,65.06
2017-11-11T22:49:17.441Z,65.02
2017-11-11T22:51:44.999Z,65.03
2017-11-11T22:54:12.559Z,65.21
2017-11-11T22:56:40.321Z,66.05
2017-11-11T22:59:07.851Z,65.74
2017-11-11T23:01:35.367Z,65.37
2017-11-11T23:04:03.188Z,65.22
2017-11-11T23:06:30.702Z,65.60
2017-11-11T23:08:58.237Z,65.56
2017-11-11T23:11:25.984Z,66.16
2017-11-11T23:13:53.544Z,65.80
2017-11-11T23:16:21.102Z,65.99
2017-11-11T23:27:52.907Z,64.90
2017-11-11T23:30:20.424Z,65.00
2017-11-11T23:32:47.948Z,65.11
2017-11-11T23:35:15.735Z,65.05
2017-11-11T23:37:43.248Z,65.13
2017-11-11T23:40:10.777Z,65.11
2017-11-11T23:42:38.564Z,65.14
2017-11-11T23:45:06.090Z,64.58
2017-11-11T23:47:33.633Z,64.83
2017-11-11T23:50:02.513Z,65.08
2017-11-11T23:52:30.771Z,64.77
2017-11-11T23:54:58.279Z,65.33
2017-11-11T23:57:26.920Z,65.02
2017-11-11T23:59:54.436Z,64.78
